Time;durP1;ratioP1;P1;durP2;ratioP2;P2;SDS_P1;SDS_P2;PMS_P1;PMS_P2;Temp;Humidity;BMP_temperature;BMP_pressure;BME280_temperature;BME280_humidity;BME280_pressure;Samples;Min_cycle;Max_cycle;Signal;HPM_P1;HPM_P2
2022/01/17 00:01:12;;;;;;;6.60;5.00;;;2.70;99.90;;;;;;5016205;28;20448;-89
2022/01/17 00:03:39;;;;;;;7.47;4.07;;;;;;;;;;5015873;28;20460;-88
2022/01/17 00:06:06;;;;;;;8.80;6.10;;;;;;;;;;5015860;28;20964;-88
2022/01/17 00:08:34;;;;;;;4.70;3.33;;;;;;;;;;5015830;28;20460;-88
2022/01/17 00:11:01;;;;;;;7.07;4.50;;;;;;;;;;5015709;28;20506;-88
2022/01/17 00:13:30;;;;;;;6.67;4.37;;;2.70;99.90;;;;;;5015199;28;20524;-87
2022/01/17 00:16:04;;;;;;;8.90;6.17;;;2.70;99.90;;;;;;5012946;28;20441;-89
2022/01/17 00:19:04;;;;;;;5.50;4.00;;;;;;;;;;5015646;28;20500;-88
2022/01/17 00:21:29;;;;;;;7.27;4.43;;;;;;;;;;5015709;28;20528;-89
2022/01/17 00:23:56;;;;;;;5.40;3.30;;;;;;;;;;5015846;28;20496;-90
2022/01/17 00:26:24;;;;;;;7.70;4.47;;;3.20;99.90;;;;;;5015691;28;20441;-87
2022/01/17 00:28:53;;;;;;;10.00;7.03;;;;;;;;;;5014621;28;20453;-88
2022/01/17 00:31:20;;;;;;;8.90;4.93;;;;;;;;;;5015548;28;20493;-88
2022/01/17 00:33:47;;;;;;;5.33;3.77;;;;;;;;;;5015533;28;20465;-88
2022/01/17 00:36:14;;;;;;;9.70;5.80;;;;;;;;;;5015629;28;20878;-91
2022/01/17 00:38:41;;;;;;;10.43;5.90;;;;;;;;;;5011723;28;20492;-88
2022/01/17 00:41:08;;;;;;;3.50;2.93;;;;;;;;;;5015605;28;20823;-88
2022/01/17 00:43:36;;;;;;;2.47;1.73;;;;;;;;;;5014500;28;20453;-88
2022/01/17 00:46:04;;;;;;;6.60;3.03;;;2.80;99.90;;;;;;5015259;28;20499;-88
2022/01/17 00:48:31;;;;;;;7.30;3.93;;;;;;;;;;5015426;28;20471;-89
2022/01/17 00:50:58;;;;;;;6.67;4.90;;;;;;;;;;5015349;28;20445;-88
2022/01/17 00:53:25;;;;;;;7.80;5.40;;;;;;;;;;5015178;28;20460;-88
2022/01/17 00:55:53;;;;;;;10.20;6.57;;;;;;;;;;5015235;28;20543;-89
2022/01/17 00:58:21;;;;;;;9.60;6.10;;;;;;;;;;5015020;28;20492;-88
2022/01/17 01:00:48;;;;;;;9.67;7.07;;;;;;;;;;5014119;28;20453;-90
2022/01/17 01:03:16;;;;;;;11.67;6.47;;;2.80;99.90;;;;;;5012054;28;20449;-89
2022/01/17 01:05:44;;;;;;;11.73;6.80;;;;;;;;;;5011964;28;20453;-89
2022/01/17 01:08:11;;;;;;;9.57;6.77;;;;;;;;;;5015013;28;20452;-88
2022/01/17 01:10:38;;;;;;;11.70;5.83;;;;;;;;;;5010936;28;20441;-90
2022/01/17 01:13:05;;;;;;;10.20;7.10;;;;;;;;;;5014765;28;20459;-89
2022/01/17 01:15:47;;;;;;;9.90;6.87;;;2.80;99.90;;;;;;5010953;28;20460;-87
2022/01/17 01:18:18;;;;;;;9.63;6.23;;;2.90;99.90;;;;;;5014547;28;20476;-91
2022/01/17 01:29:06;;;;;;;9.57;5.83;;;;;;;;;;5013713;28;20445;-90
2022/01/17 01:31:43;;;;;;;9.77;6.50;;;;;;;;;;5011102;28;20493;-89
2022/01/17 01:34:12;;;;;;;11.00;7.30;;;2.80;99.90;;;;;;5014518;28;20507;-89
2022/01/17 01:36:39;;;;;;;9.27;6.43;;;;;;;;;;5014640;28;20944;-90
2022/01/17 01:39:07;;;;;;;9.03;6.27;;;3.00;99.90;;;;;;5011627;28;20503;-91
2022/01/17 01:41:42;;;;;;;9.60;6.13;;;2.70;99.90;;;;;;5014416;28;20524;-90
2022/01/17 01:44:13;;;;;;;9.20;6.47;;;;;;;;;;5013378;28;20975;-90
2022/01/17 01:46:40;;;;;;;8.50;6.40;;;;;;;;;;5014637;28;20542;-89
2022/01/17 01:49:07;;;;;;;12.73;6.43;;;2.70;99.90;;;;;;5009505;28;20453;-88
2022/01/17 01:51:35;;;;;;;8.80;6.70;;;2.80;99.90;;;;;;5011559;28;20459;-89
2022/01/17 01:54:03;;;;;;;8.10;6.50;;;;;;;;;;5014567;28;20807;-89
2022/01/17 01:56:30;;;;;;;10.40;7.00;;;;;;;;;;5014317;28;20453;-89
2022/01/17 01:58:57;;;;;;;10.40;8.00;;;;;;;;;;5012994;28;20480;-89
2022/01/17 02:01:24;;;;;;;9.90;7.17;;;;;;;;;;5014188;28;20452;-90
2022/01/17 02:03:51;;;;;;;8.83;6.27;;;;;;;;;;5011520;28;20482;-89
2022/01/17 02:06:19;;;;;;;13.27;7.47;;;;;;;;;;5013608;28;20463;-90
2022/01/17 02:08:47;;;;;;;11.47;7.37;;;2.50;99.90;;;;;;5014191;28;20456;-89
2022/01/17 02:11:14;;;;;;;9.80;6.40;;;;;;;;;;5009809;28;20445;-89
2022/01/17 02:13:41;;;;;;;10.40;7.57;;;;;;;;;;5012949;28;20468;-90
2022/01/17 02:16:11;;;;;;;8.77;5.47;;;2.50;99.90;;;;;;5014247;28;20465;-88
2022/01/17 02:18:39;;;;;;;7.93;6.13;;;;;;;;;;5014025;28;20495;-89
2022/01/17 02:21:17;;;;;;;12.40;6.30;;;2.50;99.90;;;;;;5010914;28;20514;-89
2022/01/17 02:23:46;;;;;;;5.87;4.80;;;3.20;99.90;;;;;;5013730;28;20873;-89
2022/01/17 02:26:13;;;;;;;11.03;7.20;;;2.50;99.90;;;;;;5013758;28;20445;-88
2022/01/17 02:28:45;;;;;;;12.37;7.63;;;2.60;99.90;;;;;;5012652;28;20441;-89
2022/01/17 02:31:12;;;;;;;11.10;6.03;;;;;;;;;;5013678;28;20495;-90
2022/01/17 02:33:39;;;;;;;10.60;7.10;;;;;;;;;;5010624;28;20472;-89
2022/01/17 02:36:09;;;;;;;12.33;6.00;;;2.50;99.90;;;;;;5013793;28;20800;-89
2022/01/17 02:38:36;;;;;;;11.63;8.20;;;;;;;;;;5013617;28;20460;-89
2022/01/17 02:41:03;;;;;;;10.90;7.60;;;;;;;;;;5013676;28;20453;-88
2022/01/17 02:43:31;;;;;;;8.60;6.37;;;;;;;;;;5013153;28;20468;-90
2022/01/17 02:48:43;;;;;;;13.40;7.30;;;;;;;;;;5013681;28;20452;-89
2022/01/17 02:51:12;;;;;;;11.37;7.43;;;2.50;99.90;;;;;;5010527;28;20536;-89
2022/01/17 02:53:41;;;;;;;10.43;7.77;;;;;;;;;;5013481;28;20445;-89
2022/01/17 02:56:09;;;;;;;10.13;7.40;;;2.50;99.90;;;;;;5013474;28;20463;-89
2022/01/17 02:58:37;;;;;;;12.03;7.20;;;2.50;99.90;;;;;;5012725;28;20508;-90
2022/01/17 03:01:08;;;;;;;12.77;8.10;;;2.50;99.90;;;;;;5010300;28;20460;-89
2022/01/17 03:03:35;;;;;;;12.33;7.47;;;;;;;;;;5013573;28;20829;-90
2022/01/17 03:06:02;;;;;;;9.30;7.10;;;;;;;;;;5013680;28;20464;-89
2022/01/17 03:08:33;;;;;;;11.57;8.20;;;2.60;99.90;;;;;;5013787;28;20445;-89
2022/01/17 03:11:02;;;;;;;12.80;7.60;;;2.60;99.90;;;;;;5010405;28;20495;-89
2022/01/17 03:13:32;;;;;;;8.47;6.33;;;2.60;99.90;;;;;;5013080;28;20437;-88
2022/01/17 03:16:00;;;;;;;10.90;7.20;;;2.70;99.90;;;;;;5013291;28;20528;-89
2022/01/17 03:18:29;;;;;;;10.17;7.27;;;2.70;99.90;;;;;;5016186;28;20506;-89
2022/01/17 03:20:56;;;;;;;11.53;7.60;;;;;;;;;;5017211;28;20991;-90
2022/01/17 03:23:24;;;;;;;14.87;7.13;;;;;;;;;;5017186;28;20453;-88
2022/01/17 03:25:52;;;;;;;11.40;7.10;;;2.80;99.90;;;;;;5017963;28;20463;-89
2022/01/17 03:28:19;;;;;;;11.50;6.63;;;;;;;;;;5014644;28;20495;-88
2022/01/17 03:30:47;;;;;;;11.83;7.50;;;;;;;;;;5016032;28;20448;-89
2022/01/17 03:33:16;;;;;;;10.83;7.13;;;2.80;99.90;;;;;;5016819;28;20838;-89
2022/01/17 03:35:44;;;;;;;8.43;7.33;;;;;;;;;;5014179;28;20460;-90
2022/01/17 03:38:13;;;;;;;10.03;6.70;;;2.80;99.90;;;;;;5016953;28;20489;-89
2022/01/17 03:40:41;;;;;;;10.30;7.10;;;;;;;;;;5016836;28;20492;-89
2022/01/17 03:43:09;;;;;;;10.40;6.83;;;2.90;99.90;;;;;;5016943;28;20497;-88
2022/01/17 03:45:36;;;;;;;10.53;7.00;;;;;;;;;;5012902;28;20448;-90
2022/01/17 03:48:03;;;;;;;9.70;7.23;;;;;;;;;;5017167;28;20453;-88
2022/01/17 03:50:30;;;;;;;11.27;6.83;;;;;;;;;;5016928;28;20917;-89
2022/01/17 03:52:58;;;;;;;12.33;7.10;;;;;;;;;;5017062;28;20959;-89
2022/01/17 03:55:27;;;;;;;11.67;6.90;;;2.90;99.90;;;;;;5019516;28;20457;-89
2022/01/17 03:57:55;;;;;;;9.47;6.13;;;;;;;;;;5012450;28;20449;-89
2022/01/17 04:00:29;;;;;;;10.23;7.20;;;3.10;99.90;;;;;;5015565;28;20496;-89
2022/01/17 04:02:56;;;;;;;11.33;6.87;;;;;;;;;;5012599;28;20480;-89
2022/01/17 04:05:24;;;;;;;9.40;7.40;;;;;;;;;;5013485;28;20437;-88
2022/01/17 04:07:51;;;;;;;13.33;7.27;;;;;;;;;;5013547;28;20444;-88
2022/01/17 04:10:18;;;;;;;11.60;7.23;;;2.80;99.90;;;;;;5016045;28;20449;-89
2022/01/17 04:12:45;;;;;;;10.23;6.97;;;;;;;;;;5012007;28;20956;-90
2022/01/17 04:15:13;;;;;;;11.43;6.20;;;2.80;99.90;;;;;;5015445;28;20448;-89
2022/01/17 04:17:43;;;;;;;7.80;6.00;;;2.80;99.90;;;;;;5011803;28;20467;-88
2022/01/17 04:20:16;;;;;;;8.37;6.43;;;2.90;99.90;;;;;;5015912;28;20531;-88
2022/01/17 04:22:51;;;;;;;12.10;6.90;;;2.70;99.90;;;;;;5016128;28;20932;-88
2022/01/17 04:25:18;;;;;;;7.70;5.63;;;;;;;;;;5015960;28;20502;-89
2022/01/17 04:27:45;;;;;;;10.37;6.93;;;;;;;;;;5015756;28;20449;-89
2022/01/17 04:30:14;;;;;;;9.37;7.17;;;2.40;99.90;;;;;;5015276;28;20441;-90
2022/01/17 04:32:43;;;;;;;9.97;6.60;;;2.50;99.90;;;;;;5013074;28;20480;-89
2022/01/17 04:35:11;;;;;;;9.67;6.57;;;;;;;;;;5015850;28;20440;-88
2022/01/17 04:37:38;;;;;;;12.23;7.20;;;;;;;;;;5012415;28;20449;-89
2022/01/17 04:40:06;;;;;;;11.17;7.60;;;2.80;99.90;;;;;;5015713;28;20492;-90
2022/01/17 04:42:34;;;;;;;10.00;6.10;;;;;;;;;;5015825;28;20835;-89
2022/01/17 04:45:13;;;;;;;12.53;7.30;;;;;;;;;;5014693;28;20455;-89
2022/01/17 04:47:43;;;;;;;8.70;6.60;;;2.50;99.90;;;;;;5014887;28;20540;-91
2022/01/17 04:50:13;;;;;;;10.70;7.27;;;2.80;99.90;;;;;;5015732;28;20445;-89
2022/01/17 04:52:40;;;;;;;10.43;7.07;;;2.60;99.90;;;;;;5012647;28;20445;-89
2022/01/17 04:55:09;;;;;;;11.10;6.30;;;2.80;99.90;;;;;;5015688;28;20519;-90
2022/01/17 04:57:37;;;;;;;12.20;7.20;;;;;;;;;;5015795;28;20463;-90
2022/01/17 05:00:06;;;;;;;11.13;7.40;;;2.60;99.90;;;;;;5014495;28;21024;-89
2022/01/17 05:02:34;;;;;;;8.60;6.47;;;;;;;;;;5015435;28;20456;-89
2022/01/17 05:05:04;;;;;;;11.13;5.90;;;2.90;99.90;;;;;;5015445;28;20457;-89
2022/01/17 05:07:31;;;;;;;10.10;6.27;;;;;;;;;;5015601;28;20503;-89
2022/01/17 05:09:59;;;;;;;9.87;5.40;;;;;;;;;;5015348;28;20464;-89
2022/01/17 05:12:26;;;;;;;11.73;6.07;;;;;;;;;;5015181;28;20448;-88
2022/01/17 05:14:54;;;;;;;17.40;5.90;;;;;;;;;;5010942;28;20445;-89
2022/01/17 05:20:06;;;;;;;9.63;5.67;;;2.70;99.90;;;;;;4982318;28;20527;-89
2022/01/17 05:22:34;;;;;;;13.30;6.03;;;2.70;99.90;;;;;;5015091;28;20464;-89
2022/01/17 05:25:01;;;;;;;7.17;6.10;;;;;;;;;;5011247;28;20451;-89
2022/01/17 05:27:28;;;;;;;8.97;6.47;;;;;;;;;;5014811;28;20453;-90
2022/01/17 05:29:56;;;;;;;10.30;5.93;;;;;;;;;;5014243;28;20449;-90
2022/01/17 05:32:23;;;;;;;8.60;6.07;;;;;;;;;;5014475;28;20481;-89
2022/01/17 05:34:50;;;;;;;7.93;5.93;;;;;;;;;;5014779;28;20456;-89
2022/01/17 05:37:18;;;;;;;11.23;6.10;;;2.80;99.90;;;;;;5014877;28;20440;-89
2022/01/17 05:39:45;;;;;;;12.23;6.50;;;;;;;;;;5013991;28;20489;-89
2022/01/17 05:42:17;;;;;;;8.07;6.10;;;2.70;99.90;;;;;;5014579;28;20965;-90
2022/01/17 05:44:44;;;;;;;9.43;6.17;;;;;;;;;;5013821;28;20507;-90
2022/01/17 05:47:11;;;;;;;18.40;7.10;;;;;;;;;;5014589;28;20456;-91
2022/01/17 05:49:39;;;;;;;9.37;5.80;;;;;;;;;;5011717;28;20448;-88
2022/01/17 05:52:07;;;;;;;8.83;4.60;;;2.70;99.90;;;;;;5014352;28;20445;-88
2022/01/17 05:54:35;;;;;;;12.33;6.93;;;2.70;99.90;;;;;;5010480;28;20460;-88
2022/01/17 05:57:03;;;;;;;12.33;6.77;;;;;;;;;;5014634;28;20452;-89
2022/01/17 05:59:30;;;;;;;16.40;6.30;;;;;;;;;;5010734;28;20464;-90
2022/01/17 06:01:57;;;;;;;10.27;5.57;;;;;;;;;;5014873;28;20440;-89
2022/01/17 06:04:24;;;;;;;11.43;5.93;;;;;;;;;;5014725;28;20444;-89
2022/01/17 06:06:52;;;;;;;6.97;5.17;;;;;;;;;;5011483;28;20498;-90
2022/01/17 06:09:19;;;;;;;6.80;5.43;;;;;;;;;;5014729;28;20448;-89
2022/01/17 06:11:47;;;;;;;7.40;5.17;;;2.80;99.90;;;;;;5016414;28;20935;-91
2022/01/17 06:14:17;;;;;;;6.93;6.10;;;;;;;;;;5011687;28;20453;-91
2022/01/17 06:16:44;;;;;;;9.00;5.83;;;3.00;99.90;;;;;;5014809;28;20511;-91
2022/01/17 06:19:11;;;;;;;9.70;4.90;;;;;;;;;;5011689;28;20441;-89
2022/01/17 06:21:38;;;;;;;7.30;5.47;;;;;;;;;;5014300;28;21047;-90
2022/01/17 06:24:06;;;;;;;6.83;5.17;;;2.90;99.90;;;;;;5014227;28;20433;-89
2022/01/17 06:26:33;;;;;;;7.80;5.70;;;;;;;;;;5014167;28;20445;-91
2022/01/17 06:29:01;;;;;;;7.30;5.07;;;2.90;99.90;;;;;;5013979;28;20949;-91
2022/01/17 06:31:29;;;;;;;6.47;4.70;;;;;;;;;;5006924;28;20488;-91
2022/01/17 06:33:56;;;;;;;3.93;3.53;;;;;;;;;;5014694;28;20428;-92
2022/01/17 06:36:23;;;;;;;6.87;5.13;;;;;;;;;;5014403;28;21010;-85
2022/01/17 06:38:50;;;;;;;8.97;6.00;;;;;;;;;;5014570;28;20444;-92
2022/01/17 06:41:18;;;;;;;8.63;6.47;;;;;;;;;;5014515;28;20481;-90
2022/01/17 06:43:45;;;;;;;6.47;5.10;;;;;;;;;;5014478;28;20797;-90
2022/01/17 06:46:14;;;;;;;3.97;3.57;;;3.00;99.90;;;;;;5011497;28;20445;-90
2022/01/17 06:48:41;;;;;;;7.70;5.87;;;;;;;;;;5009087;28;20955;-92
2022/01/17 06:51:09;;;;;;;10.23;5.87;;;;;;;;;;5014169;28;20460;-90
2022/01/17 06:53:36;;;;;;;6.03;5.13;;;;;;;;;;5010263;28;20445;-90
2022/01/17 06:56:03;;;;;;;6.60;5.53;;;;;;;;;;5013987;28;20457;-90
2022/01/17 06:58:31;;;;;;;4.03;3.33;;;;;;;;;;5013921;28;20852;-90
2022/01/17 07:00:58;;;;;;;6.37;4.90;;;;;;;;;;5013841;28;20538;-91
2022/01/17 07:03:26;;;;;;;4.50;3.60;;;3.00;99.90;;;;;;5014188;28;20445;-91
2022/01/17 07:05:53;;;;;;;10.63;5.87;;;;;;;;;;5013954;28;20455;-90
2022/01/17 07:08:20;;;;;;;8.10;5.30;;;;;;;;;;5013984;28;20436;-91
2022/01/17 07:10:48;;;;;;;5.90;3.30;;;;;;;;;;5014013;28;20948;-92
2022/01/17 07:13:15;;;;;;;7.60;4.63;;;;;;;;;;5013850;28;20452;-90
2022/01/17 07:15:42;;;;;;;3.90;2.20;;;;;;;;;;5013216;28;20444;-89
2022/01/17 07:18:11;;;;;;;13.73;7.10;;;;;;;;;;5010606;28;20862;-89
2022/01/17 07:20:40;;;;;;;10.00;5.33;;;3.00;99.90;;;;;;5013782;28;20563;-90
2022/01/17 07:23:07;;;;;;;10.93;4.90;;;;;;;;;;5013414;28;20457;-89
2022/01/17 07:25:38;;;;;;;17.30;9.97;;;;;;;;;;5006997;28;20868;-89
2022/01/17 07:28:06;;;;;;;71.83;28.27;;;3.20;99.90;;;;;;5013558;28;20444;-90
2022/01/17 07:30:33;;;;;;;36.93;18.90;;;;;;;;;;5007696;28;20476;-91
2022/01/17 07:33:00;;;;;;;7.17;3.80;;;;;;;;;;5010349;28;20524;-89
2022/01/17 07:35:27;;;;;;;7.40;3.80;;;;;;;;;;5010847;28;20469;-89
2022/01/17 07:37:56;;;;;;;10.97;6.00;;;3.10;99.90;;;;;;5010688;28;20491;-91
2022/01/17 07:40:23;;;;;;;3.43;2.20;;;;;;;;;;5008426;28;20477;-88
2022/01/17 07:42:50;;;;;;;21.90;9.93;;;;;;;;;;5009584;28;20952;-88
2022/01/17 07:45:19;;;;;;;44.00;16.40;;;;;;;;;;5010293;28;20452;-91
2022/01/17 07:48:07;;;;;;;37.03;17.83;;;3.10;99.90;;;;;;5015146;28;20963;-89
2022/01/17 07:50:34;;;;;;;6.33;3.30;;;;;;;;;;5013762;28;20441;-90
2022/01/17 07:53:03;;;;;;;16.03;4.50;;;3.00;99.90;;;;;;5013390;28;20533;-88
2022/01/17 07:55:30;;;;;;;6.60;4.57;;;;;;;;;;5013124;28;20448;-88
2022/01/17 07:57:57;;;;;;;3.00;1.80;;;;;;;;;;5015575;28;20448;-93
2022/01/17 08:00:32;;;;;;;6.63;5.33;;;3.10;99.90;;;;;;5017075;28;20449;-92
2022/01/17 08:03:02;;;;;;;8.30;6.67;;;;;;;;;;5015366;28;20815;-92
2022/01/17 08:08:19;;;;;;;6.00;4.60;;;2.90;99.90;;;;;;5019853;28;20787;-92
2022/01/17 08:10:46;;;;;;;4.33;3.20;;;;;;;;;;5013147;28;20786;-93
2022/01/17 08:13:19;;;;;;;4.90;3.63;;;;;;;;;;5016046;28;20525;-93
2022/01/17 08:15:48;;;;;;;8.00;5.27;;;;;;;;;;5016848;28;20847;-92
2022/01/17 08:18:15;;;;;;;4.03;2.43;;;;;;;;;;5019554;28;20443;-90
2022/01/17 08:20:46;;;;;;;3.17;2.77;;;3.10;99.90;;;;;;5022994;28;21018;-93
2022/01/17 08:23:13;;;;;;;7.63;4.67;;;;;;;;;;5017511;28;20523;-93
2022/01/17 08:25:42;;;;;;;6.87;4.63;;;;;;;;;;4998364;28;20458;-93
2022/01/17 08:28:09;;;;;;;5.13;3.77;;;;;;;;;;4998828;28;20864;-93
2022/01/17 08:30:37;;;;;;;4.53;3.03;;;;;;;;;;4997606;28;20475;-92
2022/01/17 08:33:05;;;;;;;6.07;4.93;;;;;;;;;;4997343;28;21001;-92
2022/01/17 08:35:32;;;;;;;8.07;4.83;;;;;;;;;;4992916;28;20457;-92
2022/01/17 08:38:00;;;;;;;4.23;3.00;;;;;;;;;;4999195;28;20460;-93
2022/01/17 08:40:27;;;;;;;3.70;2.80;;;;;;;;;;5002407;28;20454;-92
2022/01/17 08:42:56;;;;;;;6.03;3.90;;;;;;;;;;5001454;28;20453;-91
2022/01/17 08:45:24;;;;;;;6.07;2.90;;;;;;;;;;5020692;28;20453;-90
2022/01/17 08:47:52;;;;;;;2.30;1.57;;;;;;;;;;5014031;28;20437;-91
2022/01/17 08:50:20;;;;;;;4.40;2.30;;;3.40;99.90;;;;;;5020077;28;20445;-93
2022/01/17 08:52:48;;;;;;;2.13;1.67;;;3.60;99.90;;;;;;5013653;28;20449;-90
2022/01/17 08:55:16;;;;;;;2.93;2.13;;;4.20;99.90;;;;;;5023366;28;20453;-92
2022/01/17 08:57:44;;;;;;;6.80;4.13;;;4.00;99.90;;;;;;5021016;28;20452;-92
2022/01/17 09:00:16;;;;;;;5.03;2.77;;;4.50;99.90;;;;;;5020008;28;20455;-92
2022/01/17 09:02:44;;;;;;;2.43;1.93;;;4.90;99.90;;;;;;5023722;28;20535;-92
2022/01/17 09:05:11;;;;;;;3.57;2.50;;;5.10;99.90;;;;;;5024858;28;20449;-90
2022/01/17 09:07:39;;;;;;;4.57;4.03;;;;;;;;;;5028976;28;20457;-91
2022/01/17 09:10:07;;;;;;;2.77;2.30;;;6.40;99.90;;;;;;5026547;28;20448;-92
2022/01/17 09:12:38;;;;;;;5.77;4.23;;;;;;;;;;5027157;28;20437;-92
2022/01/17 09:15:05;;;;;;;4.70;3.33;;;;;;;;;;5016563;28;20452;-88
2022/01/17 09:17:34;;;;;;;4.43;3.47;;;;;;;;;;5017879;28;20453;-92
2022/01/17 09:20:01;;;;;;;4.20;3.13;;;;;;;;;;5017257;28;20452;-93
2022/01/17 09:22:29;;;;;;;3.10;2.50;;;;;;;;;;5023906;28;20481;-89
2022/01/17 09:24:57;;;;;;;5.97;4.30;;;5.90;99.90;;;;;;5018456;28;20555;-92
2022/01/17 09:27:25;;;;;;;5.50;3.77;;;;;;;;;;5018955;28;20472;-94
2022/01/17 09:29:52;;;;;;;5.97;4.03;;;;;;;;;;5015934;28;20564;-90
2022/01/17 09:32:19;;;;;;;3.60;2.80;;;;;;;;;;5019651;28;20478;-93
2022/01/17 09:34:48;;;;;;;5.10;4.03;;;6.10;99.90;;;;;;5014960;28;20460;-94
2022/01/17 09:37:15;;;;;;;3.20;2.00;;;;;;;;;;5019019;28;20457;-91
2022/01/17 09:39:43;;;;;;;3.80;2.63;;;;;;;;;;5023019;28;20460;-92
2022/01/17 09:42:11;;;;;;;2.73;2.37;;;5.60;99.90;;;;;;5026171;28;20485;-90
2022/01/17 09:44:39;;;;;;;1.70;1.30;;;;;;;;;;5015186;28;20513;-93
2022/01/17 09:47:07;;;;;;;5.07;3.70;;;5.60;99.90;;;;;;4997541;28;20450;-90
2022/01/17 09:49:38;;;;;;;3.30;2.37;;;5.40;99.90;;;;;;5000791;28;20914;-92
2022/01/17 09:52:34;;;;;;;4.47;3.40;;;5.40;99.90;;;;;;5000220;28;20954;-95
2022/01/17 09:55:05;;;;;;;1.40;1.20;;;5.70;99.90;;;;;;4999725;28;20449;-92
2022/01/17 09:57:35;;;;;;;2.77;2.50;;;5.50;99.90;;;;;;4997455;28;20450;-91
2022/01/17 10:00:02;;;;;;;4.60;3.40;;;;;;;;;;5002125;28;20445;-93
2022/01/17 10:02:29;;;;;;;4.70;2.23;;;;;;;;;;5011545;28;20600;-92
2022/01/17 10:04:57;;;;;;;4.20;2.13;;;;;;;;;;5017058;28;20452;-91
2022/01/17 10:07:28;;;;;;;2.83;2.10;;;;;;;;;;5014764;28;20592;-93
2022/01/17 10:10:06;;;;;;;1.60;1.50;;;;;;;;;;5019392;28;20484;-91
2022/01/17 10:12:39;;;;;;;2.60;2.03;;;6.00;99.90;;;;;;5016398;28;20502;-92
2022/01/17 10:15:12;;;;;;;2.20;1.20;;;;;;;;;;5029247;23;20643;-91
2022/01/17 10:17:44;;;;;;;2.87;1.80;;;7.30;99.90;;;;;;4993820;28;21126;-92
2022/01/17 10:20:14;;;;;;;2.30;1.70;;;;;;;;;;4991781;28;20513;-92
2022/01/17 10:22:51;;;;;;;2.07;1.70;;;;;;;;;;4998917;28;20860;-95
2022/01/17 10:25:28;;;;;;;1.87;1.40;;;6.90;99.90;;;;;;4997601;28;21005;-92
2022/01/17 10:28:35;;;;;;;2.87;1.80;;;6.70;99.90;;;;;;4997101;28;20458;-93
2022/01/17 10:31:32;;;;;;;11.23;1.90;;;;;;;;;;4996967;28;20457;-93
2022/01/17 10:36:46;;;;;;;1.37;1.10;;;6.10;99.90;;;;;;5002433;28;20462;-92
2022/01/17 10:39:17;;;;;;;3.50;2.20;;;;;;;;;;5000452;28;20454;-92
2022/01/17 10:41:47;;;;;;;3.53;1.57;;;;;;;;;;5003967;28;20481;-92
2022/01/17 10:44:33;;;;;;;3.60;2.10;;;5.40;99.90;;;;;;4994399;28;20453;-92
2022/01/17 10:47:22;;;;;;;2.60;1.90;;;5.40;99.90;;;;;;4998360;28;20464;-92
2022/01/17 10:49:51;;;;;;;2.93;1.90;;;5.50;99.90;;;;;;4994084;28;20454;-91
2022/01/17 10:52:28;;;;;;;3.33;1.67;;;;;;;;;;4998692;28;20460;-91
2022/01/17 10:54:58;;;;;;;2.57;1.70;;;;;;;;;;4998401;28;20461;-93
2022/01/17 10:57:26;;;;;;;1.20;0.90;;;;;;;;;;5004405;28;20454;-94
2022/01/17 10:59:53;;;;;;;5.47;1.73;;;;;;;;;;5008191;28;20502;-93
2022/01/17 11:02:26;;;;;;;2.77;1.47;;;5.70;99.90;;;;;;5000891;28;20481;-93
2022/01/17 11:04:53;;;;;;;4.07;1.53;;;;;;;;;;4998457;28;20468;-93
2022/01/17 11:07:23;;;;;;;1.80;1.30;;;;;;;;;;4999221;28;20544;-94
2022/01/17 11:09:51;;;;;;;1.33;1.23;;;;;;;;;;5009429;28;20477;-94
2022/01/17 11:12:34;;;;;;;2.60;2.00;;;;;;;;;;4985210;28;20475;-93
2022/01/17 11:15:03;;;;;;;1.40;1.20;;;;;;;;;;4982822;28;21016;-92
2022/01/17 11:17:39;;;;;;;2.10;1.07;;;;;;;;;;4979135;28;20650;-93
2022/01/17 11:20:16;;;;;;;1.30;1.13;;;5.60;99.90;;;;;;4996099;23;20438;-91
2022/01/17 11:23:01;;;;;;;1.97;0.97;;;5.40;99.90;;;;;;5009144;23;20488;-93
2022/01/17 11:31:20;;;;;;;1.23;1.07;;;;;;;;;;5027617;28;20437;-92
2022/01/17 11:33:49;;;;;;;7.83;1.57;;;;;;;;;;5018605;28;20468;-89
2022/01/17 11:36:18;;;;;;;2.20;1.87;;;5.40;99.90;;;;;;5016053;28;20438;-93
2022/01/17 11:38:46;;;;;;;3.10;2.13;;;;;;;;;;5006882;23;20476;-93
2022/01/17 11:41:26;;;;;;;6.80;2.10;;;5.40;99.90;;;;;;5003704;28;20494;-90
2022/01/17 11:44:09;;;;;;;1.73;1.63;;;5.50;99.90;;;;;;5041313;23;20494;-90
2022/01/17 11:46:45;;;;;;;1.90;1.67;;;5.50;99.90;;;;;;5030084;28;20839;-91
2022/01/17 11:49:13;;;;;;;2.50;1.50;;;;;;;;;;5030433;28;20531;-93
2022/01/17 11:51:45;;;;;;;1.23;1.13;;;5.40;99.90;;;;;;5041018;23;20484;-92
2022/01/17 11:54:15;;;;;;;1.80;1.50;;;;;;;;;;5035598;23;20550;-92
2022/01/17 11:56:46;;;;;;;1.63;1.47;;;5.30;99.90;;;;;;5027966;28;20480;-91
2022/01/17 11:59:38;;;;;;;3.67;1.83;;;5.30;99.90;;;;;;5027859;28;20453;-93
2022/01/17 12:02:36;;;;;;;2.20;2.00;;;5.30;99.90;;;;;;5026987;28;20480;-93
2022/01/17 12:05:36;;;;;;;2.60;1.83;;;5.60;99.90;;;;;;5032992;28;20448;-94
2022/01/17 12:08:03;;;;;;;1.97;1.63;;;;;;;;;;5020845;28;20544;-94
2022/01/17 12:10:34;;;;;;;2.80;1.97;;;;;;;;;;5021775;28;20465;-94
2022/01/17 12:13:37;;;;;;;1.20;1.10;;;5.30;99.90;;;;;;5031949;23;20492;-91
2022/01/17 12:16:11;;;;;;;2.80;2.00;;;5.40;99.90;;;;;;5017347;28;20920;-92
2022/01/17 12:18:40;;;;;;;4.70;2.23;;;5.50;99.90;;;;;;5027297;23;20500;-89
2022/01/17 12:21:36;;;;;;;6.70;3.70;;;5.40;99.90;;;;;;5015742;28;20472;-93
2022/01/17 12:24:38;;;;;;;2.27;1.80;;;5.50;99.90;;;;;;5017837;28;20464;-91
2022/01/17 12:27:22;;;;;;;3.83;2.80;;;5.40;99.90;;;;;;5024950;28;20974;-93
2022/01/17 12:29:58;;;;;;;2.90;1.80;;;5.20;99.90;;;;;;5018816;28;20459;-90
2022/01/17 12:32:51;;;;;;;2.33;2.13;;;5.40;99.90;;;;;;5018480;28;20456;-94
2022/01/17 12:35:26;;;;;;;2.13;1.90;;;5.40;99.90;;;;;;5019665;28;20460;-93
2022/01/17 12:38:04;;;;;;;2.03;1.90;;;5.30;99.90;;;;;;5022500;28;20506;-91
2022/01/17 12:40:33;;;;;;;1.60;1.23;;;5.10;99.90;;;;;;4986587;28;20464;-93
2022/01/17 12:43:14;;;;;;;1.10;0.93;;;5.00;99.90;;;;;;5026054;28;20489;-90
2022/01/17 12:48:50;;;;;;;3.13;2.33;;;5.10;99.90;;;;;;5030170;28;20464;-93
2022/01/17 12:51:18;;;;;;;0.80;0.70;;;;;;;;;;5023746;28;20503;-93
2022/01/17 12:53:53;;;;;;;3.07;1.90;;;;;;;;;;5018628;28;20436;-93
2022/01/17 12:56:21;;;;;;;2.80;2.37;;;;;;;;;;5020781;28;20971;-91
2022/01/17 12:58:54;;;;;;;3.60;2.40;;;;;;;;;;5024650;28;20457;-90
2022/01/17 13:01:25;;;;;;;9.43;2.33;;;;;;;;;;5028752;28;20477;-90
2022/01/17 13:04:01;;;;;;;1.00;0.90;;;;;;;;;;5030428;23;20497;-92
2022/01/17 13:06:36;;;;;;;3.00;2.03;;;5.20;99.90;;;;;;5020968;28;20441;-93
2022/01/17 13:09:21;;;;;;;3.03;2.60;;;;;;;;;;5025858;28;20449;-93
2022/01/17 13:11:57;;;;;;;1.20;1.10;;;5.30;99.90;;;;;;5000840;28;20481;-94
2022/01/17 13:14:34;;;;;;;3.37;1.90;;;5.40;99.90;;;;;;4928720;29;20445;-93
2022/01/17 13:17:02;;;;;;;3.10;1.60;;;;;;;;;;4931878;29;20481;-94
2022/01/17 13:22:18;;;;;;;2.10;1.37;;;;;;;;;;5007708;28;20473;-94
2022/01/17 13:24:54;;;;;;;2.37;1.90;;;;;;;;;;5008276;28;20462;-93
2022/01/17 13:27:22;;;;;;;1.90;1.40;;;5.30;99.90;;;;;;5009432;28;20453;-93
2022/01/17 13:29:51;;;;;;;2.37;1.60;;;5.30;99.90;;;;;;5007000;28;20517;-94
2022/01/17 13:35:06;;;;;;;2.53;1.63;;;;;;;;;;5010719;28;20430;-94
2022/01/17 13:37:35;;;;;;;2.13;1.47;;;;;;;;;;5116472;22;20574;-94
2022/01/17 13:40:17;;;;;;;0.50;0.43;;;5.00;99.90;;;;;;5061322;28;20534;-92
2022/01/17 13:42:48;;;;;;;3.43;2.30;;;;;;;;;;5063075;28;20479;-92
2022/01/17 13:45:15;;;;;;;4.40;3.80;;;;;;;;;;5062811;28;20455;-94
2022/01/17 13:47:45;;;;;;;2.10;1.20;;;;;;;;;;5066010;28;20534;-94
2022/01/17 13:50:12;;;;;;;3.77;2.40;;;;;;;;;;5063471;28;20453;-93
2022/01/17 13:52:39;;;;;;;3.10;1.77;;;;;;;;;;5059794;28;20457;-94
2022/01/17 13:55:30;;;;;;;1.90;1.13;;;4.80;99.90;;;;;;5057601;28;20442;-94
2022/01/17 13:58:00;;;;;;;2.03;1.70;;;;;;;;;;5061838;28;20550;-92
2022/01/17 14:00:40;;;;;;;2.07;1.87;;;4.80;99.90;;;;;;5068345;23;20476;-93
2022/01/17 14:03:08;;;;;;;3.47;1.43;;;;;;;;;;5042211;28;20583;-92
2022/01/17 14:05:37;;;;;;;2.10;2.00;;;4.90;99.90;;;;;;5041929;28;20463;-92
2022/01/17 14:08:11;;;;;;;0.80;0.60;;;;;;;;;;5038878;28;20974;-94
2022/01/17 14:10:58;;;;;;;1.60;1.50;;;4.90;99.90;;;;;;5054073;23;20482;-89
2022/01/17 14:13:27;;;;;;;1.77;1.60;;;5.00;99.90;;;;;;5034677;28;20454;-92
2022/01/17 14:15:57;;;;;;;1.43;1.07;;;;;;;;;;5036196;28;20451;-86
2022/01/17 14:18:26;;;;;;;2.20;1.70;;;4.90;99.90;;;;;;5034799;28;20444;-87
2022/01/17 14:20:55;;;;;;;3.63;1.83;;;5.10;99.90;;;;;;5035452;28;20518;-93
2022/01/17 14:23:28;;;;;;;2.70;2.20;;;5.00;99.90;;;;;;5030610;28;20492;-87
2022/01/17 14:25:57;;;;;;;1.63;1.53;;;;;;;;;;5034450;28;20940;-87
2022/01/17 14:28:27;;;;;;;5.47;2.07;;;5.30;99.90;;;;;;5034903;28;20437;-92
2022/01/17 14:30:54;;;;;;;4.27;2.90;;;;;;;;;;5028989;28;20447;-88
2022/01/17 14:33:23;;;;;;;6.83;2.53;;;5.20;99.90;;;;;;5034782;28;20452;-90
2022/01/17 14:36:07;;;;;;;1.47;0.73;;;5.30;99.90;;;;;;5034299;28;20432;-93
2022/01/17 14:38:42;;;;;;;4.97;1.47;;;5.20;99.90;;;;;;5034038;28;20484;-92
2022/01/17 14:41:16;;;;;;;2.63;2.20;;;;;;;;;;5030081;28;20446;-92
2022/01/17 14:43:44;;;;;;;3.20;1.50;;;;;;;;;;5032953;28;20499;-89
2022/01/17 14:46:11;;;;;;;2.23;2.03;;;;;;;;;;5030622;28;20468;-87